Time;durP1;ratioP1;P1;durP2;ratioP2;P2;SDS_P1;SDS_P2;PMS_P1;PMS_P2;Temp;Humidity;BMP_temperature;BMP_pressure;BME280_temperature;BME280_humidity;BME280_pressure;Samples;Min_cycle;Max_cycle;Signal;HPM_P1;HPM_P2
2023/12/07 00:01:31;;;;;;;11.83;8.00;;;;;;;;;;4994861;28;20198;-67
2023/12/07 00:03:57;;;;;;;12.97;8.50;;;;;;;;;;4993989;28;20561;-67
2023/12/07 00:06:22;;;;;;;11.47;8.17;;;;;;;;;;4993995;28;20301;-67
2023/12/07 00:08:47;;;;;;;11.63;7.93;;;;;;;;;;4991163;28;20254;-67
2023/12/07 00:11:12;;;;;;;12.87;8.40;;;;;;;;;;4988359;28;20199;-67
2023/12/07 00:13:38;;;;;;;11.23;7.70;;;;;;;;;;4995783;28;20215;-67
2023/12/07 00:16:03;;;;;;;10.03;7.43;;;;;;;;;;4995124;28;20200;-67
2023/12/07 00:18:28;;;;;;;13.50;8.83;;;;;;;;;;4992174;28;20188;-67
2023/12/07 00:20:53;;;;;;;12.87;8.47;;;;;;;;;;4993430;28;20180;-67
2023/12/07 00:23:18;;;;;;;11.50;8.33;;;;;;;;;;4993083;28;20558;-65
2023/12/07 00:25:45;;;;;;;11.90;8.20;;;;;;;;;;4985169;28;20230;-67
2023/12/07 00:28:10;;;;;;;13.60;8.20;;;;;;;;;;4986795;28;20542;-67
2023/12/07 00:30:36;;;;;;;13.40;7.87;;;;;;;;;;4990390;28;20199;-67
2023/12/07 00:33:01;;;;;;;13.17;7.97;;;;;;;;;;4995780;28;20180;-67
2023/12/07 00:35:28;;;;;;;13.63;7.47;;;;;;;;;;4987635;28;20192;-67
2023/12/07 00:37:54;;;;;;;13.00;7.47;;;;;;;;;;4988144;28;20214;-67
2023/12/07 00:40:19;;;;;;;13.00;8.50;;;;;;;;;;4994468;28;20643;-67
2023/12/07 00:42:44;;;;;;;12.67;7.97;;;;;;;;;;4997253;28;20557;-67
2023/12/07 00:45:11;;;;;;;11.93;7.93;;;;;;;;;;4994725;28;20182;-67
2023/12/07 00:47:36;;;;;;;12.20;8.53;;;;;;;;;;4994907;28;20297;-67
2023/12/07 00:50:01;;;;;;;14.00;8.77;;;;;;;;;;4995171;28;20302;-67
2023/12/07 00:52:27;;;;;;;12.63;8.63;;;;;;;;;;4985521;28;20211;-67
2023/12/07 00:54:52;;;;;;;16.10;7.80;;;;;;;;;;4986095;28;20663;-67
2023/12/07 00:57:17;;;;;;;14.53;8.93;;;;;;;;;;4992286;28;20278;-67
2023/12/07 00:59:42;;;;;;;12.90;8.77;;;;;;;;;;4993572;28;20214;-67
2023/12/07 01:02:07;;;;;;;13.30;8.27;;;;;;;;;;4995983;28;20219;-67
2023/12/07 01:04:33;;;;;;;12.80;8.03;;;;;;;;;;5001463;28;20191;-67
2023/12/07 01:06:58;;;;;;;11.63;8.00;;;;;;;;;;4998129;28;20242;-67
2023/12/07 01:09:23;;;;;;;13.30;7.63;;;;;;;;;;4996807;28;20191;-66
2023/12/07 01:11:49;;;;;;;12.63;7.93;;;;;;;;;;4993643;28;20270;-67
2023/12/07 01:14:14;;;;;;;15.70;7.73;;;;;;;;;;4997977;28;20604;-67
2023/12/07 01:16:40;;;;;;;12.87;7.73;;;;;;;;;;5000240;28;20195;-67
2023/12/07 01:19:06;;;;;;;9.80;7.17;;;;;;;;;;4997701;28;20204;-67
2023/12/07 01:21:32;;;;;;;13.03;7.07;;;;;;;;;;5007299;28;20249;-67
2023/12/07 01:23:58;;;;;;;11.13;7.73;;;;;;;;;;4999538;28;20188;-67
2023/12/07 01:26:23;;;;;;;13.10;8.30;;;;;;;;;;4997066;28;20250;-67
2023/12/07 01:28:48;;;;;;;12.90;7.93;;;;;;;;;;4986551;28;20183;-66
2023/12/07 01:31:13;;;;;;;11.53;7.40;;;;;;;;;;4995789;28;20214;-67
2023/12/07 01:33:38;;;;;;;9.40;6.93;;;;;;;;;;5002334;28;20218;-67
2023/12/07 01:36:04;;;;;;;12.60;7.83;;;;;;;;;;4990146;28;20191;-67
2023/12/07 01:38:29;;;;;;;12.23;7.83;;;;;;;;;;4995584;28;20183;-67
2023/12/07 01:40:54;;;;;;;10.63;7.43;;;;;;;;;;4997739;28;20187;-67
2023/12/07 01:43:22;;;;;;;8.77;6.77;;;;;;;;;;5000157;28;20195;-66
2023/12/07 01:45:47;;;;;;;10.73;7.53;;;;;;;;;;4994982;28;20187;-67
2023/12/07 01:48:13;;;;;;;13.27;7.33;;;;;;;;;;4998536;28;20577;-67
2023/12/07 01:50:38;;;;;;;10.60;7.23;;;;;;;;;;5001612;28;20203;-67
2023/12/07 01:53:04;;;;;;;12.20;7.47;;;;;;;;;;4997708;28;20199;-67
2023/12/07 01:55:30;;;;;;;11.40;7.73;;;;;;;;;;4998598;28;20179;-67
2023/12/07 01:57:56;;;;;;;11.50;6.93;;;;;;;;;;4991361;28;20199;-67
2023/12/07 02:00:21;;;;;;;10.57;7.53;;;;;;;;;;4992799;28;20311;-68
2023/12/07 02:02:47;;;;;;;12.33;7.17;;;;;;;;;;5001767;28;20179;-66
2023/12/07 02:05:12;;;;;;;14.53;7.93;;;;;;;;;;4997825;28;20636;-67
2023/12/07 02:07:39;;;;;;;13.17;8.20;;;;;;;;;;5000288;28;20206;-66
2023/12/07 02:10:04;;;;;;;12.03;7.80;;;;;;;;;;4995994;28;20596;-67
2023/12/07 02:12:29;;;;;;;11.33;7.30;;;;;;;;;;4999891;28;20212;-67
2023/12/07 02:14:55;;;;;;;15.80;8.40;;;;;;;;;;4990213;28;20175;-67
2023/12/07 02:17:26;;;;;;;9.97;6.97;;;;;;;;;;4988886;28;20204;-66
2023/12/07 02:19:55;;;;;;;11.90;7.90;;;;;;;;;;4997906;28;20258;-66
2023/12/07 02:22:36;;;;;;;11.67;7.53;;;;;;;;;;4998243;28;20178;-66
2023/12/07 02:25:09;;;;;;;12.67;7.73;;;;;;;;;;4998996;28;20187;-66
2023/12/07 02:27:35;;;;;;;12.67;8.30;;;;;;;;;;4999033;28;20204;-66
2023/12/07 02:30:00;;;;;;;13.20;8.60;;;;;;;;;;4993981;28;20254;-66
2023/12/07 02:32:25;;;;;;;11.83;7.57;;;;;;;;;;5000019;28;20579;-66
2023/12/07 02:34:51;;;;;;;12.80;8.57;;;;;;;;;;4984247;28;20184;-66
2023/12/07 02:37:16;;;;;;;13.23;7.63;;;;;;;;;;4988755;28;20675;-65
2023/12/07 02:39:41;;;;;;;12.93;9.60;;;;;;;;;;4996078;28;20532;-66
2023/12/07 02:42:07;;;;;;;12.47;8.23;;;;;;;;;;4997688;28;20176;-66
2023/12/07 02:44:32;;;;;;;16.17;8.37;;;;;;;;;;4998943;28;20183;-66
2023/12/07 02:46:58;;;;;;;14.00;8.50;;;;;;;;;;4999879;28;20203;-66
2023/12/07 02:49:23;;;;;;;13.60;8.23;;;;;;;;;;4998095;28;20307;-66
2023/12/07 02:51:48;;;;;;;11.67;8.03;;;;;;;;;;4999732;28;20627;-66
2023/12/07 02:54:14;;;;;;;17.20;9.77;;;;;;;;;;4984847;28;20560;-66
2023/12/07 02:56:39;;;;;;;13.97;9.53;;;;;;;;;;4996488;28;20205;-65
2023/12/07 02:59:04;;;;;;;13.13;9.57;;;;;;;;;;4997041;28;20172;-66
2023/12/07 03:01:29;;;;;;;14.43;9.13;;;;;;;;;;4997617;28;20180;-65
2023/12/07 03:03:54;;;;;;;14.57;8.93;;;;;;;;;;5000512;28;21932;-66
2023/12/07 03:06:20;;;;;;;13.57;8.33;;;;;;;;;;4998995;28;20714;-66
2023/12/07 03:08:45;;;;;;;13.07;8.47;;;;;;;;;;5002133;28;20187;-66
2023/12/07 03:11:10;;;;;;;13.70;9.73;;;;;;;;;;4988496;28;20207;-67
2023/12/07 03:13:35;;;;;;;14.90;9.63;;;;;;;;;;4996771;28;20589;-66
2023/12/07 03:16:00;;;;;;;13.77;8.57;;;;;;;;;;5000628;28;20190;-66
2023/12/07 03:18:25;;;;;;;12.73;8.43;;;;;;;;;;4995422;28;20179;-66
2023/12/07 03:20:51;;;;;;;11.00;8.33;;;;;;;;;;5000784;28;20194;-66
2023/12/07 03:23:16;;;;;;;15.43;9.90;;;;;;;;;;4996957;28;20659;-66
2023/12/07 03:25:41;;;;;;;16.63;8.73;;;;;;;;;;4999392;28;20266;-68
2023/12/07 03:28:07;;;;;;;13.43;9.83;;;;;;;;;;4993734;28;20238;-67
2023/12/07 03:30:32;;;;;;;11.90;8.80;;;;;;;;;;4998439;28;20201;-68
2023/12/07 03:32:57;;;;;;;13.43;8.60;;;;;;;;;;4995071;28;20314;-67
2023/12/07 03:35:23;;;;;;;15.53;9.47;;;;;;;;;;4993757;28;20539;-67
2023/12/07 03:37:48;;;;;;;16.17;9.30;;;;;;;;;;4987764;28;20196;-67
2023/12/07 03:40:13;;;;;;;13.63;9.57;;;;;;;;;;4997349;28;20183;-66
2023/12/07 03:42:38;;;;;;;16.50;9.43;;;;;;;;;;4996435;28;20588;-67
2023/12/07 03:45:04;;;;;;;12.90;9.10;;;;;;;;;;4996676;28;20262;-66
2023/12/07 03:47:29;;;;;;;12.80;8.83;;;;;;;;;;4996470;28;20206;-68
2023/12/07 03:49:54;;;;;;;14.87;8.63;;;;;;;;;;4998627;28;20180;-68
2023/12/07 03:52:19;;;;;;;12.47;8.97;;;;;;;;;;4991952;28;20888;-67
2023/12/07 03:54:44;;;;;;;13.77;9.17;;;;;;;;;;4992484;28;20595;-67
2023/12/07 03:57:10;;;;;;;14.90;9.80;;;;;;;;;;4995464;28;20200;-67
2023/12/07 03:59:38;;;;;;;21.50;10.33;;;;;;;;;;4998419;28;20190;-68
2023/12/07 04:02:03;;;;;;;19.60;10.90;;;;;;;;;;4999194;28;20689;-68
2023/12/07 04:04:28;;;;;;;15.80;10.10;;;;;;;;;;4999963;28;20175;-67
2023/12/07 04:06:53;;;;;;;14.23;9.77;;;;;;;;;;5004299;28;20225;-67
2023/12/07 04:09:19;;;;;;;14.13;9.73;;;;;;;;;;4997604;28;20211;-67
2023/12/07 04:11:45;;;;;;;14.97;10.07;;;;;;;;;;4991064;28;20204;-68
2023/12/07 04:14:11;;;;;;;18.67;11.30;;;;;;;;;;4993659;28;20443;-68
2023/12/07 04:16:36;;;;;;;18.53;10.87;;;;;;;;;;4997991;28;20586;-67
2023/12/07 04:19:02;;;;;;;19.80;11.67;;;;;;;;;;4993779;28;20207;-67
2023/12/07 04:21:27;;;;;;;18.93;12.17;;;;;;;;;;4999781;28;20202;-67
2023/12/07 04:23:52;;;;;;;19.90;12.33;;;;;;;;;;5000148;28;20175;-67
2023/12/07 04:26:17;;;;;;;23.60;12.80;;;;;;;;;;4997453;28;20198;-67
2023/12/07 04:28:43;;;;;;;24.23;12.83;;;;;;;;;;4984775;28;20466;-67
2023/12/07 04:31:08;;;;;;;24.20;13.17;;;;;;;;;;4994120;28;20211;-64
2023/12/07 04:33:33;;;;;;;22.60;13.50;;;;;;;;;;4996254;28;20176;-65
2023/12/07 04:35:58;;;;;;;24.47;13.93;;;;;;;;;;4994965;28;20659;-65
2023/12/07 04:38:23;;;;;;;25.27;14.60;;;;;;;;;;4986610;28;20729;-66
2023/12/07 04:40:49;;;;;;;25.63;13.63;;;;;;;;;;4989467;28;20283;-66
2023/12/07 04:43:14;;;;;;;27.07;16.60;;;;;;;;;;4994961;28;20172;-66
2023/12/07 04:45:39;;;;;;;28.07;15.23;;;;;;;;;;4995366;28;20210;-66
2023/12/07 04:48:05;;;;;;;27.60;16.03;;;;;;;;;;4995175;28;20229;-66
2023/12/07 04:50:30;;;;;;;28.43;16.43;;;;;;;;;;4996036;28;20184;-66
2023/12/07 04:52:55;;;;;;;34.47;18.83;;;;;;;;;;4999569;28;20640;-66
2023/12/07 04:55:21;;;;;;;40.30;19.10;;;;;;;;;;4993901;28;20187;-66
2023/12/07 04:57:46;;;;;;;33.53;17.73;;;;;;;;;;4986396;28;20234;-66
2023/12/07 05:00:13;;;;;;;46.93;18.53;;;;;;;;;;4997255;28;20270;-65
2023/12/07 05:02:38;;;;;;;39.67;18.93;;;;;;;;;;4995447;28;20187;-66
2023/12/07 05:05:05;;;;;;;44.53;19.30;;;;;;;;;;4996086;28;20190;-66
2023/12/07 05:07:30;;;;;;;36.93;17.30;;;;;;;;;;4995413;28;20225;-66
2023/12/07 05:09:55;;;;;;;32.33;17.53;;;;;;;;;;4998091;28;20368;-66
2023/12/07 05:12:20;;;;;;;27.43;15.70;;;;;;;;;;4992799;28;20204;-66
2023/12/07 05:14:45;;;;;;;49.00;20.57;;;;;;;;;;4999633;28;20548;-66
2023/12/07 05:17:10;;;;;;;36.27;16.63;;;;;;;;;;4981839;28;20680;-66
2023/12/07 05:19:36;;;;;;;28.77;15.17;;;;;;;;;;4998695;28;20241;-66
2023/12/07 05:22:01;;;;;;;37.07;16.43;;;;;;;;;;4993060;28;20223;-66
2023/12/07 05:24:27;;;;;;;29.57;14.90;;;;;;;;;;4997780;28;20187;-66
2023/12/07 05:26:52;;;;;;;38.57;16.93;;;;;;;;;;4994085;28;20210;-66
2023/12/07 05:29:17;;;;;;;52.07;17.50;;;;;;;;;;4993068;28;20188;-66
2023/12/07 05:31:43;;;;;;;31.67;16.33;;;;;;;;;;4995489;28;20213;-66
2023/12/07 05:34:08;;;;;;;29.50;15.23;;;;;;;;;;4984616;28;20191;-65
2023/12/07 05:36:33;;;;;;;39.60;18.00;;;;;;;;;;4994739;28;20191;-65
2023/12/07 05:38:59;;;;;;;36.93;15.70;;;;;;;;;;4990181;28;20640;-66
2023/12/07 05:41:25;;;;;;;38.77;17.83;;;;;;;;;;4987924;28;20175;-66
2023/12/07 05:43:51;;;;;;;58.53;19.97;;;;;;;;;;5000218;28;20207;-67
2023/12/07 05:46:16;;;;;;;128.33;26.20;;;;;;;;;;4991450;28;20230;-65
2023/12/07 05:48:41;;;;;;;32.57;15.40;;;;;;;;;;4996841;28;20248;-66
2023/12/07 05:51:11;;;;;;;76.63;22.83;;;;;;;;;;4998103;28;20257;-66
2023/12/07 05:53:36;;;;;;;55.43;21.00;;;;;;;;;;4992142;28;20187;-66
2023/12/07 05:56:02;;;;;;;55.47;18.10;;;;;;;;;;4999379;28;20357;-66
2023/12/07 05:58:27;;;;;;;47.67;20.27;;;;;;;;;;4988216;28;20267;-66
2023/12/07 06:00:52;;;;;;;51.57;20.03;;;;;;;;;;4989472;28;20198;-66
2023/12/07 06:03:17;;;;;;;48.43;19.17;;;;;;;;;;5001749;28;20172;-66
2023/12/07 06:05:44;;;;;;;30.87;16.63;;;;;;;;;;5008950;28;20179;-66
2023/12/07 06:08:10;;;;;;;51.23;20.57;;;;;;;;;;5000371;28;20215;-66
2023/12/07 06:10:35;;;;;;;35.33;17.67;;;;;;;;;;4989325;28;20258;-66
2023/12/07 06:13:01;;;;;;;48.30;19.53;;;;;;;;;;4989041;28;20203;-67
2023/12/07 06:15:27;;;;;;;37.83;18.93;;;;;;;;;;4991463;28;20183;-67
2023/12/07 06:17:52;;;;;;;40.23;18.73;;;;;;;;;;4999640;28;20214;-67
2023/12/07 06:20:17;;;;;;;46.80;19.23;;;;;;;;;;4997254;28;20274;-67
2023/12/07 06:22:42;;;;;;;41.50;17.27;;;;;;;;;;4998351;28;20665;-67
2023/12/07 06:25:08;;;;;;;45.43;20.33;;;;;;;;;;4998125;28;20267;-67
2023/12/07 06:27:34;;;;;;;89.43;19.33;;;;;;;;;;4987744;28;20226;-67
2023/12/07 06:29:59;;;;;;;44.87;17.53;;;;;;;;;;4992009;28;20267;-67
2023/12/07 06:32:24;;;;;;;43.03;18.07;;;;;;;;;;4998991;28;20286;-66
2023/12/07 06:34:50;;;;;;;90.93;21.97;;;;;;;;;;4997569;28;20180;-66
2023/12/07 06:37:17;;;;;;;81.07;18.23;;;;;;;;;;4994492;28;20750;-67
2023/12/07 06:39:42;;;;;;;49.13;17.10;;;;;;;;;;4990995;28;20258;-66
2023/12/07 06:42:07;;;;;;;32.27;13.90;;;;;;;;;;4993260;28;20282;-66
2023/12/07 06:44:32;;;;;;;49.77;15.73;;;;;;;;;;4998434;28;20183;-66
2023/12/07 06:46:58;;;;;;;46.83;16.20;;;;;;;;;;4998742;28;20211;-67
2023/12/07 06:49:24;;;;;;;28.77;14.27;;;;;;;;;;4978533;28;20202;-66
2023/12/07 06:51:49;;;;;;;46.40;13.97;;;;;;;;;;4980185;28;20594;-67
2023/12/07 06:54:14;;;;;;;51.40;17.03;;;;;;;;;;4979838;28;20175;-67
2023/12/07 06:56:39;;;;;;;34.03;15.60;;;;;;;;;;4990981;28;20203;-65
2023/12/07 06:59:04;;;;;;;65.77;17.83;;;;;;;;;;4988749;28;20175;-67
2023/12/07 07:01:29;;;;;;;55.93;18.27;;;;;;;;;;4986232;28;20659;-67
2023/12/07 07:03:56;;;;;;;51.03;17.97;;;;;;;;;;4996292;28;20663;-67
2023/12/07 07:06:21;;;;;;;49.03;18.80;;;;;;;;;;5002456;28;20239;-67
2023/12/07 07:08:46;;;;;;;44.73;18.23;;;;;;;;;;5000187;28;20648;-67
2023/12/07 07:11:13;;;;;;;49.50;17.17;;;;;;;;;;5000954;28;20199;-67
2023/12/07 07:13:38;;;;;;;46.80;15.47;;;;;;;;;;5008772;28;20356;-68
2023/12/07 07:16:03;;;;;;;59.00;18.90;;;;;;;;;;4999594;28;20195;-67
2023/12/07 07:18:29;;;;;;;46.03;16.53;;;;;;;;;;4995617;28;20651;-65
2023/12/07 07:20:54;;;;;;;48.17;16.73;;;;;;;;;;4984187;28;20329;-65
2023/12/07 07:23:19;;;;;;;54.63;16.63;;;;;;;;;;4997595;28;20318;-67
2023/12/07 07:25:45;;;;;;;65.53;19.30;;;;;;;;;;4999935;28;20569;-66
2023/12/07 07:28:10;;;;;;;37.47;15.43;;;;;;;;;;4998450;28;20183;-67
2023/12/07 07:30:35;;;;;;;51.10;15.73;;;;;;;;;;4998023;28;20459;-67
2023/12/07 07:33:01;;;;;;;28.67;14.03;;;;;;;;;;5001954;28;20218;-67
2023/12/07 07:35:27;;;;;;;43.37;15.77;;;;;;;;;;4997693;28;20230;-67
2023/12/07 07:37:53;;;;;;;56.97;14.53;;;;;;;;;;5002614;28;20198;-67
2023/12/07 07:40:19;;;;;;;88.77;18.23;;;;;;;;;;4986857;28;20242;-67
2023/12/07 07:42:44;;;;;;;39.80;14.87;;;;;;;;;;4988773;28;20179;-67
2023/12/07 07:45:09;;;;;;;27.00;11.47;;;;;;;;;;4998699;28;20172;-67
2023/12/07 07:47:34;;;;;;;57.33;13.13;;;;;;;;;;4994184;28;20199;-67
2023/12/07 07:50:05;;;;;;;36.90;10.47;;;;;;;;;;4996871;28;20176;-67
2023/12/07 07:52:30;;;;;;;35.13;12.13;;;;;;;;;;4993270;28;20211;-67
2023/12/07 07:54:56;;;;;;;38.80;11.23;;;;;;;;;;4998009;28;20250;-67
2023/12/07 07:57:21;;;;;;;31.87;10.50;;;;;;;;;;5000520;28;20199;-66
2023/12/07 07:59:46;;;;;;;31.03;9.97;;;;;;;;;;4988601;28;20191;-67
2023/12/07 08:02:11;;;;;;;24.93;9.53;;;;;;;;;;4993898;28;20187;-67
2023/12/07 08:04:36;;;;;;;27.23;9.83;;;;;;;;;;4998478;28;20189;-66
2023/12/07 08:07:02;;;;;;;19.70;9.07;;;;;;;;;;4998465;28;20218;-67
2023/12/07 08:09:28;;;;;;;30.47;9.93;;;;;;;;;;5000001;28;20603;-67
2023/12/07 08:11:53;;;;;;;28.77;9.20;;;;;;;;;;5003692;28;20681;-66
2023/12/07 08:14:18;;;;;;;29.67;8.73;;;;;;;;;;4994643;28;20182;-66
2023/12/07 08:16:46;;;;;;;19.73;8.47;;;;;;;;;;5001807;28;20572;-67
2023/12/07 08:19:12;;;;;;;27.90;9.97;;;;;;;;;;4998358;28;20186;-67
2023/12/07 08:21:37;;;;;;;37.67;10.30;;;;;;;;;;5005038;28;20266;-67
2023/12/07 08:24:03;;;;;;;27.93;8.97;;;;;;;;;;4993695;28;20556;-66
2023/12/07 08:26:28;;;;;;;32.47;8.77;;;;;;;;;;4994891;28;20203;-66
2023/12/07 08:28:53;;;;;;;25.37;9.03;;;;;;;;;;4987602;28;20774;-67
2023/12/07 08:31:19;;;;;;;68.73;10.57;;;;;;;;;;4993973;28;20207;-66
2023/12/07 08:33:44;;;;;;;14.73;7.37;;;;;;;;;;4993864;28;20179;-66
2023/12/07 08:36:10;;;;;;;34.70;8.50;;;;;;;;;;4993723;28;20226;-66
2023/12/07 08:38:35;;;;;;;23.83;7.33;;;;;;;;;;4996840;28;20168;-66
2023/12/07 08:41:00;;;;;;;18.03;8.57;;;;;;;;;;4990406;28;20205;-66
2023/12/07 08:43:28;;;;;;;21.90;8.07;;;;;;;;;;4990569;28;20180;-66
2023/12/07 08:45:53;;;;;;;15.60;7.50;;;;;;;;;;4994511;28;20387;-67
2023/12/07 08:48:21;;;;;;;21.13;9.17;;;;;;;;;;4996893;28;20186;-67
2023/12/07 08:50:47;;;;;;;53.07;10.37;;;;;;;;;;4997957;28;20205;-65
2023/12/07 08:53:12;;;;;;;36.50;7.93;;;;;;;;;;4995395;28;20175;-66
2023/12/07 08:55:37;;;;;;;29.23;10.20;;;;;;;;;;4994662;28;20171;-66
2023/12/07 08:58:04;;;;;;;26.63;8.90;;;;;;;;;;4996785;28;20705;-66
2023/12/07 09:00:30;;;;;;;36.60;9.50;;;;;;;;;;4992632;28;20238;-66
2023/12/07 09:02:55;;;;;;;26.00;8.27;;;;;;;;;;4997392;28;20210;-67
2023/12/07 09:05:21;;;;;;;25.73;9.00;;;;;;;;;;4998709;28;20557;-67
2023/12/07 09:07:46;;;;;;;26.30;9.23;;;;;;;;;;4995935;28;20258;-66
2023/12/07 09:10:11;;;;;;;32.80;9.40;;;;;;;;;;5000334;28;20178;-66
2023/12/07 09:12:36;;;;;;;23.83;9.27;;;;;;;;;;4993821;28;20211;-67
2023/12/07 09:15:03;;;;;;;27.30;11.23;;;;;;;;;;4998173;28;20286;-66
2023/12/07 09:17:28;;;;;;;31.97;9.70;;;;;;;;;;4990233;28;20211;-67
2023/12/07 09:19:53;;;;;;;34.47;11.33;;;;;;;;;;4995241;28;20178;-67
2023/12/07 09:22:19;;;;;;;30.73;10.23;;;;;;;;;;4996488;28;20230;-68
2023/12/07 09:24:45;;;;;;;32.13;11.03;;;;;;;;;;4998445;28;20179;-68
2023/12/07 09:27:11;;;;;;;22.37;8.40;;;;;;;;;;4995500;28;20200;-68
2023/12/07 09:29:37;;;;;;;21.87;9.00;;;;;;;;;;4995547;28;20257;-67
2023/12/07 09:32:02;;;;;;;24.73;9.20;;;;;;;;;;4996647;28;20210;-68
2023/12/07 09:34:27;;;;;;;23.30;9.33;;;;;;;;;;4991887;28;20180;-67
2023/12/07 09:37:05;;;;;;;26.93;9.33;;;;;;;;;;4992083;28;20230;-67
2023/12/07 09:39:30;;;;;;;21.20;8.50;;;;;;;;;;4994387;28;20261;-67
2023/12/07 09:41:55;;;;;;;26.97;10.13;;;;;;;;;;4993562;28;20381;-67
2023/12/07 09:44:21;;;;;;;20.10;10.13;;;;;;;;;;4995744;28;20548;-67
2023/12/07 09:46:46;;;;;;;24.50;9.57;;;;;;;;;;4994592;28;20554;-68
2023/12/07 09:49:11;;;;;;;27.97;10.17;;;;;;;;;;4994581;28;20685;-67
2023/12/07 09:51:36;;;;;;;19.13;8.70;;;;;;;;;;4994136;28;20876;-67
2023/12/07 09:54:02;;;;;;;17.23;8.03;;;;;;;;;;4993830;28;20832;-67
2023/12/07 09:56:28;;;;;;;20.33;9.17;;;;;;;;;;4995719;28;20670;-68
2023/12/07 09:58:53;;;;;;;22.77;9.20;;;;;;;;;;4992928;28;20195;-67
2023/12/07 10:01:18;;;;;;;20.47;9.10;;;;;;;;;;4994035;28;20526;-68
2023/12/07 10:03:46;;;;;;;26.40;10.53;;;;;;;;;;4994456;28;20693;-67
2023/12/07 10:06:12;;;;;;;26.40;10.63;;;;;;;;;;4994151;28;20218;-67
2023/12/07 10:08:37;;;;;;;23.00;9.23;;;;;;;;;;5001581;28;20182;-67
2023/12/07 10:11:05;;;;;;;23.23;9.57;;;;;;;;;;4993495;28;20217;-67
2023/12/07 10:13:31;;;;;;;25.70;8.53;;;;;;;;;;4994507;28;20179;-68
2023/12/07 10:16:09;;;;;;;24.53;9.60;;;;;;;;;;4994606;28;20183;-67
2023/12/07 10:18:34;;;;;;;18.40;9.07;;;;;;;;;;4994067;28;20191;-66
2023/12/07 10:21:00;;;;;;;23.27;9.33;;;;;;;;;;4993806;28;20686;-67
2023/12/07 10:23:27;;;;;;;27.53;9.53;;;;;;;;;;4995839;28;20274;-67
2023/12/07 10:25:52;;;;;;;22.27;10.23;;;;;;;;;;4994065;28;20262;-67
2023/12/07 10:28:19;;;;;;;26.83;10.13;;;;;;;;;;4993396;28;20270;-66
2023/12/07 10:30:44;;;;;;;22.57;9.90;;;;;;;;;;4994119;28;20587;-67
2023/12/07 10:33:10;;;;;;;26.10;10.70;;;;;;;;;;4991773;28;20226;-67
2023/12/07 10:35:39;;;;;;;19.33;9.80;;;;;;;;;;4995455;28;20558;-67
2023/12/07 10:38:05;;;;;;;22.33;10.63;;;;;;;;;;4993707;28;20195;-68
2023/12/07 10:40:30;;;;;;;19.53;8.87;;;;;;;;;;4994913;28;20168;-67
2023/12/07 10:42:57;;;;;;;22.73;9.33;;;;;;;;;;4992206;28;20670;-67
2023/12/07 10:45:24;;;;;;;16.33;9.40;;;;;;;;;;4994470;28;20179;-68
2023/12/07 10:47:51;;;;;;;25.80;11.13;;;;;;;;;;4994912;28;20195;-67
2023/12/07 10:50:21;;;;;;;22.23;10.47;;;;;;;;;;4994090;28;20266;-67
2023/12/07 10:52:54;;;;;;;24.33;10.27;;;;;;;;;;4993770;28;21228;-67
2023/12/07 10:55:20;;;;;;;18.80;10.53;;;;;;;;;;4995466;28;20178;-67
2023/12/07 10:57:46;;;;;;;21.80;11.20;;;;;;;;;;4993964;28;20705;-67
2023/12/07 11:00:12;;;;;;;18.30;9.90;;;;;;;;;;4992327;28;20186;-68
2023/12/07 11:02:38;;;;;;;23.83;10.10;;;;;;;;;;4994440;28;20285;-68
2023/12/07 11:05:03;;;;;;;26.33;11.67;;;;;;;;;;4992331;28;20227;-67
2023/12/07 11:07:33;;;;;;;27.73;11.13;;;;;;;;;;4994950;28;20242;-67
2023/12/07 11:10:16;;;;;;;23.53;11.17;;;;;;;;;;4992831;28;20211;-67
2023/12/07 11:12:47;;;;;;;24.97;11.33;;;;;;;;;;4995368;28;20211;-67
2023/12/07 11:15:13;;;;;;;27.40;12.13;;;;;;;;;;4994695;28;20277;-68
2023/12/07 11:17:52;;;;;;;24.77;12.63;;;;;;;;;;4992051;28;20222;-67
2023/12/07 11:20:18;;;;;;;23.40;11.40;;;;;;;;;;4994762;28;20187;-67
2023/12/07 11:22:43;;;;;;;24.97;10.97;;;;;;;;;;4992682;28;20187;-67
2023/12/07 11:25:10;;;;;;;23.90;11.10;;;;;;;;;;4995488;28;20194;-67
2023/12/07 11:27:35;;;;;;;27.00;10.53;;;;;;;;;;4994306;28;20687;-67
2023/12/07 11:30:02;;;;;;;26.10;11.70;;;;;;;;;;4993648;28;20195;-67
2023/12/07 11:32:27;;;;;;;25.87;11.07;;;;;;;;;;4994525;28;20219;-67
2023/12/07 11:34:52;;;;;;;27.87;12.57;;;;;;;;;;4992803;28;20538;-68
2023/12/07 11:37:17;;;;;;;27.50;13.13;;;;;;;;;;4995251;28;20219;-67
2023/12/07 11:39:45;;;;;;;29.37;13.43;;;;;;;;;;4994879;28;20176;-68
2023/12/07 11:42:11;;;;;;;23.63;13.07;;;;;;;;;;4992733;28;20179;-68
2023/12/07 11:44:40;;;;;;;25.07;12.03;;;;;;;;;;4991497;28;20582;-67
2023/12/07 11:47:06;;;;;;;26.43;12.03;;;;;;;;;;4992474;28;20192;-67
2023/12/07 11:49:31;;;;;;;21.93;10.77;;;;;;;;;;4993453;28;20274;-67
2023/12/07 11:51:57;;;;;;;24.57;11.17;;;;;;;;;;4994721;28;20573;-67
2023/12/07 11:54:23;;;;;;;28.00;12.37;;;;;;;;;;4992942;28;20184;-67
2023/12/07 11:56:52;;;;;;;26.77;12.60;;;;;;;;;;4994512;28;20202;-67
2023/12/07 11:59:17;;;;;;;28.77;11.93;;;;;;;;;;4995212;28;20176;-67
2023/12/07 12:01:46;;;;;;;26.77;12.90;;;;;;;;;;4992215;28;20555;-67
2023/12/07 12:04:11;;;;;;;29.10;11.90;;;;;;;;;;4995163;28;20758;-68
2023/12/07 12:06:36;;;;;;;32.73;13.60;;;;;;;;;;4993828;28;20268;-68
2023/12/07 12:09:01;;;;;;;24.37;11.30;;;;;;;;;;4993798;28;20184;-68
2023/12/07 12:11:27;;;;;;;26.03;11.73;;;;;;;;;;4987247;28;20202;-68
2023/12/07 12:13:52;;;;;;;28.03;11.90;;;;;;;;;;4994033;28;20211;-67
2023/12/07 12:16:17;;;;;;;27.67;11.40;;;;;;;;;;4994821;28;20699;-69
2023/12/07 12:18:42;;;;;;;24.27;13.57;;;;;;;;;;4990967;28;20183;-66
2023/12/07 12:21:08;;;;;;;26.13;12.07;;;;;;;;;;4994293;28;20179;-67
2023/12/07 12:23:34;;;;;;;27.70;13.03;;;;;;;;;;4991147;28;20188;-67
2023/12/07 12:26:00;;;;;;;24.37;12.53;;;;;;;;;;4995422;28;20184;-67
2023/12/07 12:28:25;;;;;;;27.73;14.17;;;;;;;;;;4990280;28;20184;-67
2023/12/07 12:30:51;;;;;;;26.27;13.17;;;;;;;;;;4992498;28;20725;-68
2023/12/07 12:33:16;;;;;;;23.70;13.17;;;;;;;;;;4992381;28;20172;-67
2023/12/07 12:35:42;;;;;;;21.50;11.83;;;;;;;;;;4996126;28;20237;-67
2023/12/07 12:38:13;;;;;;;27.30;13.37;;;;;;;;;;4995919;28;20186;-67
2023/12/07 12:40:39;;;;;;;30.10;13.03;;;;;;;;;;4992945;28;20179;-67
2023/12/07 12:43:04;;;;;;;25.67;13.30;;;;;;;;;;4994106;28;20597;-68
2023/12/07 12:45:29;;;;;;;29.37;11.73;;;;;;;;;;4994354;28;20179;-68
2023/12/07 12:47:55;;;;;;;22.77;12.47;;;;;;;;;;4992714;28;20207;-68
2023/12/07 12:50:52;;;;;;;23.07;12.30;;;;;;;;;;4992575;28;20176;-68
2023/12/07 12:53:17;;;;;;;26.97;13.83;;;;;;;;;;4989839;28;20238;-67
2023/12/07 12:55:43;;;;;;;22.23;12.07;;;;;;;;;;4997016;28;20236;-67
2023/12/07 12:58:09;;;;;;;29.67;13.23;;;;;;;;;;4990488;28;20217;-68
2023/12/07 13:00:37;;;;;;;25.93;13.07;;;;;;;;;;4995432;28;20686;-67
2023/12/07 13:03:03;;;;;;;24.03;12.33;;;;;;;;;;4997168;28;20191;-68
2023/12/07 13:05:29;;;;;;;26.73;12.33;;;;;;;;;;4997840;28;20187;-66
2023/12/07 13:07:54;;;;;;;26.93;11.97;;;;;;;;;;4996173;28;20273;-67
2023/12/07 13:10:20;;;;;;;25.67;12.37;;;;;;;;;;5004786;28;20192;-66
2023/12/07 13:12:45;;;;;;;24.80;12.73;;;;;;;;;;4998297;28;20701;-67
2023/12/07 13:15:12;;;;;;;24.40;12.00;;;;;;;;;;4995945;28;20183;-68
2023/12/07 13:17:38;;;;;;;23.27;12.93;;;;;;;;;;4988896;28;20210;-67
2023/12/07 13:20:04;;;;;;;26.00;12.53;;;;;;;;;;4997634;28;20183;-67
2023/12/07 13:22:29;;;;;;;25.40;12.47;;;;;;;;;;4998636;28;20230;-68
2023/12/07 13:24:55;;;;;;;27.60;13.43;;;;;;;;;;4999371;28;20194;-67
2023/12/07 13:27:20;;;;;;;23.73;12.33;;;;;;;;;;4993457;28;20203;-67
2023/12/07 13:29:45;;;;;;;21.57;11.97;;;;;;;;;;4997466;28;20194;-68
2023/12/07 13:32:10;;;;;;;24.77;12.73;;;;;;;;;;4990561;28;20203;-67
2023/12/07 13:34:36;;;;;;;20.70;11.70;;;;;;;;;;4991572;28;20246;-68
2023/12/07 13:37:01;;;;;;;23.50;11.60;;;;;;;;;;4992812;28;20190;-67
2023/12/07 13:39:27;;;;;;;25.33;14.67;;;;;;;;;;4994853;28;20188;-68
2023/12/07 13:41:52;;;;;;;23.77;11.93;;;;;;;;;;4988983;28;20222;-67
2023/12/07 13:44:18;;;;;;;25.40;13.13;;;;;;;;;;4998088;28;20203;-66
2023/12/07 13:46:44;;;;;;;25.97;13.90;;;;;;;;;;4997549;28;20230;-68
2023/12/07 13:49:09;;;;;;;28.40;12.87;;;;;;;;;;4987666;28;20641;-67
2023/12/07 13:51:34;;;;;;;23.13;12.87;;;;;;;;;;4996514;28;20291;-67
2023/12/07 13:53:59;;;;;;;29.60;14.30;;;;;;;;;;4997988;28;20180;-67
2023/12/07 13:56:25;;;;;;;25.67;12.57;;;;;;;;;;4992233;28;20589;-67
2023/12/07 13:58:50;;;;;;;25.67;13.83;;;;;;;;;;4990716;28;20218;-67
2023/12/07 14:01:16;;;;;;;23.90;12.20;;;;;;;;;;4995685;28;20180;-67
2023/12/07 14:03:41;;;;;;;27.67;14.17;;;;;;;;;;5001644;28;20278;-66
2023/12/07 14:06:07;;;;;;;28.00;14.27;;;;;;;;;;4991524;28;20278;-66
2023/12/07 14:08:32;;;;;;;26.57;13.37;;;;;;;;;;4995272;28;20203;-67
2023/12/07 14:10:57;;;;;;;27.43;14.77;;;;;;;;;;4995959;28;20243;-68
2023/12/07 14:13:25;;;;;;;30.47;14.87;;;;;;;;;;4996751;28;20693;-67
2023/12/07 14:15:50;;;;;;;26.00;12.97;;;;;;;;;;4994586;28;20213;-68